createdAt,value
2022-09-28T00:01:23.176Z,1.50
2022-09-28T00:05:27.412Z,1.70
2022-09-28T00:09:30.600Z,1.70
2022-09-28T00:13:34.198Z,1.63
2022-09-28T00:17:38.856Z,1.70
2022-09-28T00:21:43.311Z,1.53
2022-09-28T00:25:46.406Z,1.40
2022-09-28T00:29:49.535Z,1.40
2022-09-28T00:33:56.969Z,1.70
2022-09-28T00:38:00.358Z,1.30
2022-09-28T00:42:05.734Z,5.00
2022-09-28T00:46:15.447Z,1.60
2022-09-28T00:50:25.535Z,1.80
2022-09-28T00:54:28.821Z,1.60
2022-09-28T00:58:35.498Z,1.47
2022-09-28T01:02:38.789Z,1.40
2022-09-28T01:06:45.259Z,1.80
2022-09-28T01:10:49.212Z,2.10
2022-09-28T01:14:53.903Z,2.03
2022-09-28T01:19:08.382Z,1.90
2022-09-28T01:23:52.683Z,2.20
2022-09-28T01:28:01.413Z,2.17
2022-09-28T01:32:25.287Z,2.50
2022-09-28T01:36:34.969Z,2.43
2022-09-28T01:40:39.060Z,2.50
2022-09-28T01:44:47.179Z,3.10
2022-09-28T01:48:56.401Z,2.63
2022-09-28T01:53:05.739Z,2.90
2022-09-28T01:57:15.619Z,3.47
2022-09-28T02:01:24.634Z,4.17
2022-09-28T02:05:32.322Z,3.25
2022-09-28T02:09:40.974Z,4.00
2022-09-28T02:13:47.443Z,3.58
2022-09-28T02:17:52.459Z,3.73
2022-09-28T02:22:00.611Z,4.13
2022-09-28T02:26:08.211Z,4.37
2022-09-28T02:30:12.377Z,4.70
2022-09-28T02:34:16.863Z,4.43
2022-09-28T02:38:20.050Z,4.40
2022-09-28T02:42:28.146Z,4.37
2022-09-28T02:46:38.725Z,4.67
2022-09-28T02:50:50.864Z,4.47
2022-09-28T02:55:19.945Z,4.60
2022-09-28T02:59:44.250Z,5.27
2022-09-28T03:03:52.263Z,5.30
2022-09-28T03:08:00.578Z,6.60
2022-09-28T03:12:09.518Z,6.57
2022-09-28T03:16:14.776Z,6.23
2022-09-28T03:20:18.742Z,6.10
2022-09-28T03:24:23.339Z,5.72
2022-09-28T03:28:26.589Z,6.27
2022-09-28T03:32:29.731Z,5.55
2022-09-28T03:36:32.876Z,5.70
2022-09-28T03:40:37.712Z,4.93
2022-09-28T03:44:40.959Z,5.43
2022-09-28T03:48:44.029Z,4.70
2022-09-28T03:52:47.197Z,5.20
2022-09-28T03:56:52.071Z,5.73
2022-09-28T04:00:55.194Z,4.78
2022-09-28T04:04:58.385Z,4.87
2022-09-28T04:09:01.507Z,4.60
2022-09-28T04:13:05.998Z,4.40
2022-09-28T04:17:09.131Z,4.67
2022-09-28T04:21:13.887Z,4.40
2022-09-28T04:25:17.387Z,4.20
2022-09-28T04:29:22.418Z,4.20
2022-09-28T04:33:25.577Z,4.40
2022-09-28T04:37:31.284Z,4.43
2022-09-28T04:41:34.651Z,4.70
2022-09-28T04:45:39.204Z,4.75
2022-09-28T04:49:42.291Z,4.73
2022-09-28T04:53:45.515Z,4.57
2022-09-28T04:57:48.538Z,5.03
2022-09-28T05:01:54.190Z,4.93
2022-09-28T05:05:57.582Z,4.60
2022-09-28T05:10:01.666Z,5.20
2022-09-28T05:14:05.831Z,4.37
2022-09-28T05:18:10.361Z,4.87
2022-09-28T05:22:14.957Z,4.83
2022-09-28T05:26:18.053Z,4.97
2022-09-28T05:30:22.169Z,4.70
2022-09-28T05:34:26.667Z,4.77
2022-09-28T05:38:30.032Z,4.83
2022-09-28T05:42:33.275Z,4.63
2022-09-28T05:46:36.345Z,5.07
2022-09-28T05:50:40.867Z,3.90
2022-09-28T05:54:43.938Z,3.75
2022-09-28T05:58:46.976Z,3.90
2022-09-28T06:03:00.755Z,3.38
2022-09-28T06:07:05.875Z,3.57
2022-09-28T06:11:09.252Z,2.95
2022-09-28T06:15:13.314Z,3.13
2022-09-28T06:19:16.469Z,2.97
2022-09-28T06:23:20.922Z,2.90
2022-09-28T06:27:24.013Z,2.80
2022-09-28T06:31:30.134Z,2.97
2022-09-28T06:35:34.132Z,3.00
2022-09-28T06:39:38.574Z,2.50
2022-09-28T06:43:41.989Z,1.70
2022-09-28T06:47:45.019Z,2.28
2022-09-28T06:51:48.112Z,1.95
2022-09-28T06:55:52.576Z,2.10
2022-09-28T06:59:55.656Z,1.85
2022-09-28T07:03:59.120Z,1.80
2022-09-28T07:08:03.138Z,1.70
2022-09-28T07:12:10.241Z,1.70
2022-09-28T07:16:13.512Z,2.30
2022-09-28T07:20:19.397Z,2.10
2022-09-28T07:24:23.505Z,2.60
2022-09-28T07:28:27.934Z,2.47
2022-09-28T07:32:32.227Z,3.28
2022-09-28T07:36:36.444Z,3.55
2022-09-28T07:40:57.567Z,3.13
2022-09-28T07:45:02.215Z,3.30
2022-09-28T07:49:09.719Z,3.13
2022-09-28T07:53:15.368Z,2.60
2022-09-28T07:57:18.455Z,2.80
2022-09-28T08:01:23.389Z,2.60
2022-09-28T08:05:27.126Z,2.20
2022-09-28T08:09:30.265Z,1.50
2022-09-28T08:13:33.410Z,1.75
2022-09-28T08:17:37.896Z,1.55
2022-09-28T08:21:46.695Z,1.73
2022-09-28T08:25:50.383Z,1.50
2022-09-28T08:29:53.591Z,1.70
2022-09-28T08:33:58.718Z,1.70
2022-09-28T08:38:03.707Z,1.50
2022-09-28T08:42:23.864Z,1.50
2022-09-28T08:46:33.244Z,1.48
2022-09-28T08:50:45.303Z,1.60
2022-09-28T08:54:53.158Z,1.40
2022-09-28T08:59:00.178Z,1.30
2022-09-28T09:03:06.908Z,1.35
2022-09-28T09:07:52.298Z,1.13
2022-09-28T09:12:04.699Z,1.10
2022-09-28T09:16:17.331Z,1.30
2022-09-28T09:20:31.210Z,1.10
2022-09-28T09:24:43.415Z,1.90
2022-09-28T09:29:13.739Z,1.40
2022-09-28T09:33:39.734Z,1.35
2022-09-28T09:38:07.846Z,1.50
2022-09-28T09:42:27.088Z,2.60
2022-09-28T09:46:37.161Z,1.77
2022-09-28T09:50:45.612Z,1.85
2022-09-28T09:54:53.054Z,1.70
2022-09-28T09:59:02.493Z,1.48
2022-09-28T10:03:05.979Z,1.50
2022-09-28T10:07:17.116Z,1.67
2022-09-28T10:11:26.820Z,1.60
2022-09-28T10:15:33.590Z,1.40
2022-09-28T10:19:37.921Z,1.65
2022-09-28T10:23:42.407Z,1.65
2022-09-28T10:27:49.420Z,1.55
2022-09-28T10:31:54.535Z,1.58
2022-09-28T10:35:58.431Z,1.67
2022-09-28T10:40:01.937Z,1.60
2022-09-28T10:44:11.041Z,1.70
2022-09-28T10:48:21.551Z,2.25
2022-09-28T10:52:46.393Z,1.70
2022-09-28T10:56:50.906Z,1.75
2022-09-28T11:01:00.367Z,1.58
2022-09-28T11:05:07.371Z,1.50
2022-09-28T11:09:30.499Z,1.80
2022-09-28T11:13:42.607Z,1.52
2022-09-28T11:17:46.077Z,1.52
2022-09-28T11:21:52.346Z,1.92
2022-09-28T11:26:01.169Z,1.45
2022-09-28T11:30:04.371Z,2.05
2022-09-28T11:34:16.604Z,1.80
2022-09-28T11:38:34.429Z,1.90
2022-09-28T11:42:46.511Z,1.60
2022-09-28T11:46:59.440Z,1.42
2022-09-28T11:51:07.225Z,1.60
2022-09-28T11:55:20.266Z,1.77
2022-09-28T11:59:35.859Z,1.63
2022-09-28T12:03:58.211Z,1.40
2022-09-28T12:08:11.830Z,2.33
2022-09-28T12:12:30.835Z,2.58
2022-09-28T12:17:04.180Z,2.20
2022-09-28T12:21:17.852Z,2.17
2022-09-28T12:25:29.848Z,1.88
2022-09-28T12:29:53.860Z,1.50
2022-09-28T12:34:03.841Z,1.88
2022-09-28T12:38:38.845Z,1.40
2022-09-28T12:43:07.859Z,1.50
2022-09-28T12:47:55.871Z,1.20
2022-09-28T12:52:01.547Z,1.35
2022-09-28T12:56:15.715Z,1.30
2022-09-28T13:00:31.872Z,1.40
2022-09-28T13:05:15.857Z,1.30
2022-09-28T13:09:28.854Z,1.20
2022-09-28T13:13:51.861Z,1.38
2022-09-28T13:18:11.850Z,1.75
2022-09-28T13:22:35.902Z,1.20
2022-09-28T13:26:50.878Z,1.50
2022-09-28T13:31:02.849Z,1.20
2022-09-28T13:35:13.852Z,1.58
2022-09-28T13:40:00.051Z,1.23
2022-09-28T13:44:38.856Z,1.23
2022-09-28T13:48:48.646Z,1.35
2022-09-28T13:53:05.868Z,1.48
2022-09-28T13:57:26.856Z,1.40
2022-09-28T14:01:43.888Z,1.42
2022-09-28T14:06:22.971Z,1.40
2022-09-28T14:10:57.849Z,1.30
2022-09-28T14:15:02.928Z,1.52
2022-09-28T14:19:17.056Z,1.75
2022-09-28T14:23:49.924Z,1.45
2022-09-28T14:28:11.859Z,1.55
2022-09-28T14:32:40.860Z,1.45
2022-09-28T14:37:13.876Z,1.27
2022-09-28T14:41:37.860Z,1.42
2022-09-28T14:45:50.904Z,1.60
2022-09-28T14:50:24.851Z,1.15
2022-09-28T14:54:35.859Z,1.63
2022-09-28T14:58:45.873Z,1.50
2022-09-28T15:02:58.849Z,1.33
2022-09-28T15:07:16.886Z,1.20
2022-09-28T15:11:23.511Z,1.60
2022-09-28T15:15:37.906Z,1.60
2022-09-28T15:19:56.965Z,1.30
2022-09-28T15:24:07.871Z,1.30
2022-09-28T15:28:28.855Z,1.15
2022-09-28T15:32:38.858Z,1.42
2022-09-28T15:36:50.943Z,1.20
2022-09-28T15:41:02.917Z,1.33
2022-09-28T15:45:33.861Z,1.30
2022-09-28T15:49:51.350Z,1.40
2022-09-28T15:54:05.862Z,1.30
2022-09-28T15:58:24.862Z,1.40
2022-09-28T16:02:34.934Z,1.27
2022-09-28T16:06:50.869Z,1.30
2022-09-28T16:10:59.263Z,1.30
2022-09-28T16:15:14.849Z,1.67
2022-09-28T16:19:30.876Z,1.67
2022-09-28T16:23:36.665Z,1.58
2022-09-28T16:27:50.872Z,1.42
2022-09-28T16:32:02.866Z,1.50
2022-09-28T16:36:12.565Z,1.83
2022-09-28T16:40:22.903Z,1.83
2022-09-28T16:44:34.879Z,35.70
2022-09-28T16:48:51.922Z,4.22
2022-09-28T16:53:24.932Z,9.32
2022-09-28T16:57:34.872Z,2.53
2022-09-28T17:01:49.167Z,3.00
2022-09-28T17:06:07.883Z,3.60
2022-09-28T17:10:18.402Z,2.33
2022-09-28T17:14:29.906Z,2.50
2022-09-28T17:18:39.868Z,1.90
2022-09-28T17:22:50.891Z,2.10
2022-09-28T17:26:54.846Z,2.00
2022-09-28T17:31:04.943Z,1.95
2022-09-28T17:35:25.392Z,2.20
2022-09-28T17:39:31.728Z,2.30
2022-09-28T17:43:40.886Z,2.35
2022-09-28T17:47:50.935Z,3.95
2022-09-28T17:52:00.867Z,2.80
2022-09-28T17:56:05.378Z,5.30
2022-09-28T18:00:16.881Z,4.97
2022-09-28T18:04:50.815Z,4.35
2022-09-28T18:08:56.922Z,5.85
2022-09-28T18:13:07.874Z,4.95
2022-09-28T18:17:17.872Z,6.50
2022-09-28T18:21:27.902Z,5.05
2022-09-28T18:25:37.857Z,4.00
2022-09-28T18:29:42.501Z,5.43
2022-09-28T18:33:53.027Z,6.35
2022-09-28T18:37:56.677Z,5.68
2022-09-28T18:42:06.090Z,6.45
2022-09-28T18:46:12.177Z,6.20
2022-09-28T18:50:22.290Z,5.77
2022-09-28T18:54:32.041Z,6.00
2022-09-28T18:58:43.895Z,6.30
2022-09-28T19:03:09.042Z,6.13
2022-09-28T19:07:18.875Z,5.60
2022-09-28T19:11:28.902Z,5.28
2022-09-28T19:15:40.916Z,6.03
2022-09-28T19:19:51.906Z,5.37
2022-09-28T19:23:55.624Z,5.93
2022-09-28T19:28:04.892Z,14.45
2022-09-28T19:32:07.900Z,13.03
2022-09-28T19:36:21.863Z,11.70
2022-09-28T19:40:31.916Z,11.77
2022-09-28T19:44:41.925Z,9.97
2022-09-28T19:48:51.914Z,10.77
2022-09-28T19:53:03.869Z,9.63
2022-09-28T19:57:14.033Z,11.10
2022-09-28T20:01:17.495Z,14.03
2022-09-28T20:05:26.887Z,11.13
2022-09-28T20:09:31.312Z,10.77
2022-09-28T20:13:42.874Z,11.68
2022-09-28T20:17:52.945Z,12.03
2022-09-28T20:22:04.863Z,10.60
2022-09-28T20:26:10.498Z,9.40
2022-09-28T20:30:21.879Z,10.83
2022-09-28T20:34:31.854Z,11.07
2022-09-28T20:38:43.871Z,9.33
2022-09-28T20:42:54.876Z,10.03
2022-09-28T20:46:57.863Z,9.50
2022-09-28T20:51:09.876Z,8.27
2022-09-28T20:55:19.855Z,7.80
2022-09-28T20:59:32.859Z,5.77
2022-09-28T21:03:59.884Z,7.03
2022-09-28T21:08:09.861Z,5.43
2022-09-28T21:12:21.867Z,5.70
2022-09-28T21:16:27.507Z,5.67
2022-09-28T21:20:36.867Z,6.00
2022-09-28T21:24:46.902Z,5.50
2022-09-28T21:28:52.392Z,6.13
2022-09-28T21:33:02.869Z,5.78
2022-09-28T21:37:12.872Z,5.30
2022-09-28T21:41:22.895Z,5.33
2022-09-28T21:45:32.971Z,5.20
2022-09-28T21:49:43.866Z,6.03
2022-09-28T21:53:54.859Z,7.27
2022-09-28T21:58:03.907Z,7.33
2022-09-28T22:02:13.874Z,7.30
2022-09-28T22:06:34.859Z,6.93
2022-09-28T22:10:44.870Z,7.20
2022-09-28T22:14:54.875Z,7.27
2022-09-28T22:18:58.554Z,8.07
2022-09-28T22:23:09.867Z,7.57
2022-09-28T22:27:19.879Z,7.30
2022-09-28T22:31:25.211Z,7.70
2022-09-28T22:35:34.871Z,7.20
2022-09-28T22:39:47.906Z,8.17
2022-09-28T22:43:52.490Z,7.27
2022-09-28T22:48:01.877Z,7.30
2022-09-28T22:52:11.934Z,8.20
2022-09-28T22:56:18.940Z,8.17
2022-09-28T23:00:28.869Z,7.87
2022-09-28T23:04:38.093Z,8.63
2022-09-28T23:08:54.866Z,7.10
2022-09-28T23:12:59.695Z,7.37
2022-09-28T23:17:08.863Z,8.73
2022-09-28T23:21:19.884Z,8.20
2022-09-28T23:25:29.999Z,7.97
2022-09-28T23:29:40.908Z,8.30
2022-09-28T23:33:50.895Z,7.40
2022-09-28T23:38:01.040Z,6.87
2022-09-28T23:42:10.867Z,7.13
2022-09-28T23:46:21.913Z,7.07
2022-09-28T23:50:25.006Z,7.97
2022-09-28T23:54:34.877Z,6.53
2022-09-28T23:58:44.875Z,6.60
